createdAt,value
2019-04-30T00:00:55.304Z,62.45
2019-04-30T00:01:55.594Z,62.45
2019-04-30T00:02:55.059Z,62.45
2019-04-30T00:03:55.868Z,62.34
2019-04-30T00:04:54.923Z,62.34
2019-04-30T00:05:53.784Z,62.34
2019-04-30T00:06:52.140Z,62.65
2019-04-30T00:07:55.009Z,62.24
2019-04-30T00:08:55.069Z,63.06
2019-04-30T00:09:53.877Z,62.58
2019-04-30T00:10:52.084Z,63.09
2019-04-30T00:11:57.809Z,62.99
2019-04-30T00:12:53.059Z,62.78
2019-04-30T00:13:57.308Z,62.68
2019-04-30T00:14:54.916Z,62.88
2019-04-30T00:15:52.795Z,62.88
2019-04-30T00:16:54.679Z,62.88
2019-04-30T00:17:52.973Z,62.88
2019-04-30T00:18:58.266Z,63.20
2019-04-30T00:19:55.978Z,63.09
2019-04-30T00:20:52.964Z,63.09
2019-04-30T00:21:56.818Z,63.09
2019-04-30T00:22:52.978Z,63.32
2019-04-30T00:23:51.956Z,63.32
2019-04-30T00:24:51.927Z,63.32
2019-04-30T00:25:51.942Z,63.43
2019-04-30T00:26:52.571Z,63.29
2019-04-30T00:27:51.927Z,64.15
2019-04-30T00:28:51.900Z,63.43
2019-04-30T00:29:51.885Z,63.74
2019-04-30T00:30:51.875Z,63.64
2019-04-30T00:31:51.857Z,63.53
2019-04-30T00:32:51.886Z,63.32
2019-04-30T00:33:52.657Z,63.53
2019-04-30T00:34:52.829Z,63.74
2019-04-30T00:35:55.185Z,63.43
2019-04-30T00:36:52.815Z,63.53
2019-04-30T00:37:56.404Z,63.43
2019-04-30T00:38:54.745Z,63.74
2019-04-30T00:39:53.044Z,63.74
2019-04-30T00:40:51.759Z,63.84
2019-04-30T00:41:51.738Z,64.25
2019-04-30T00:42:51.738Z,64.04
2019-04-30T00:43:51.757Z,64.48
2019-04-30T00:44:51.698Z,64.04
2019-04-30T00:45:51.685Z,64.18
2019-04-30T00:46:51.715Z,64.28
2019-04-30T00:47:51.670Z,64.39
2019-04-30T00:48:51.681Z,64.18
2019-04-30T00:49:52.119Z,64.18
2019-04-30T00:50:51.643Z,64.28
2019-04-30T00:51:54.742Z,64.18
2019-04-30T00:52:52.625Z,64.90
2019-04-30T00:53:52.564Z,64.48
2019-04-30T00:54:51.614Z,65.00
2019-04-30T00:55:51.618Z,64.18
2019-04-30T00:56:51.579Z,65.20
2019-04-30T00:57:51.558Z,64.93
2019-04-30T00:58:51.545Z,64.79
2019-04-30T00:59:51.561Z,64.72
2019-04-30T01:00:51.552Z,64.72
2019-04-30T01:01:51.511Z,65.13
2019-04-30T01:02:51.507Z,64.72
2019-04-30T01:03:51.506Z,64.83
2019-04-30T01:04:51.517Z,64.79
2019-04-30T01:05:51.460Z,64.72
2019-04-30T01:06:51.489Z,64.69
2019-04-30T01:07:51.904Z,64.93
2019-04-30T01:08:51.437Z,64.93
2019-04-30T01:09:51.454Z,64.93
2019-04-30T01:10:51.427Z,64.83
2019-04-30T01:11:51.411Z,64.83
2019-04-30T01:12:51.417Z,64.93
2019-04-30T01:13:53.930Z,65.44
2019-04-30T01:14:51.393Z,65.34
2019-04-30T01:15:52.572Z,64.83
2019-04-30T01:16:51.333Z,65.34
2019-04-30T01:17:53.678Z,65.65
2019-04-30T01:18:51.312Z,65.23
2019-04-30T01:19:54.500Z,65.34
2019-04-30T01:20:51.300Z,65.78
2019-04-30T01:21:51.286Z,65.44
2019-04-30T01:22:51.275Z,65.65
2019-04-30T01:23:54.510Z,65.34
2019-04-30T01:24:51.249Z,65.58
2019-04-30T01:25:51.503Z,65.47
2019-04-30T01:26:51.221Z,66.19
2019-04-30T01:27:51.265Z,65.89
2019-04-30T01:28:53.715Z,65.58
2019-04-30T01:29:51.185Z,65.99
2019-04-30T01:30:53.954Z,65.99
2019-04-30T01:31:52.202Z,65.89
2019-04-30T01:32:56.756Z,65.78
2019-04-30T01:33:52.134Z,65.99
2019-04-30T01:34:53.823Z,65.99
2019-04-30T01:35:51.141Z,65.78
2019-04-30T01:36:52.336Z,65.78
2019-04-30T01:37:51.142Z,65.89
2019-04-30T01:38:52.563Z,65.89
2019-04-30T01:39:51.090Z,65.99
2019-04-30T01:40:51.281Z,65.89
2019-04-30T01:41:51.049Z,66.19
2019-04-30T01:42:51.968Z,66.02
2019-04-30T01:43:51.062Z,65.92
2019-04-30T01:44:53.848Z,65.71
2019-04-30T01:45:51.018Z,65.92
2019-04-30T01:46:51.785Z,66.02
2019-04-30T01:47:50.994Z,65.92
2019-04-30T01:48:51.990Z,66.02
2019-04-30T01:49:50.973Z,66.12
2019-04-30T01:50:50.994Z,65.92
2019-04-30T01:51:52.810Z,66.43
2019-04-30T01:52:51.944Z,66.53
2019-04-30T01:53:50.918Z,66.33
2019-04-30T01:54:50.943Z,66.22
2019-04-30T01:55:50.931Z,66.53
2019-04-30T01:56:50.888Z,66.56
2019-04-30T01:57:50.890Z,66.56
2019-04-30T01:58:50.904Z,66.46
2019-04-30T01:59:50.854Z,66.56
2019-04-30T02:00:50.868Z,66.25
2019-04-30T02:01:50.840Z,66.25
2019-04-30T02:02:50.826Z,66.22
2019-04-30T02:03:50.847Z,66.43
2019-04-30T02:04:50.796Z,66.46
2019-04-30T02:05:50.806Z,66.77
2019-04-30T02:06:50.809Z,66.53
2019-04-30T02:07:50.760Z,66.46
2019-04-30T02:08:50.756Z,66.36
2019-04-30T02:09:50.746Z,66.36
2019-04-30T02:10:51.372Z,66.15
2019-04-30T02:11:50.716Z,66.15
2019-04-30T02:12:50.700Z,65.95
2019-04-30T02:13:50.714Z,65.74
2019-04-30T02:14:51.828Z,66.77
2019-04-30T02:15:50.694Z,66.87
2019-04-30T02:16:50.668Z,66.67
2019-04-30T02:17:50.653Z,66.15
2019-04-30T02:18:50.638Z,67.08
2019-04-30T02:19:56.576Z,66.05
2019-04-30T02:20:51.627Z,66.36
2019-04-30T02:21:50.618Z,66.25
2019-04-30T02:22:50.611Z,66.25
2019-04-30T02:23:50.590Z,65.74
2019-04-30T02:24:50.556Z,66.56
2019-04-30T02:25:50.596Z,65.74
2019-04-30T02:26:50.542Z,66.15
2019-04-30T02:27:50.543Z,66.15
2019-04-30T02:28:50.531Z,66.56
2019-04-30T02:29:50.537Z,66.46
2019-04-30T02:30:50.828Z,65.74
2019-04-30T02:31:50.608Z,66.05
2019-04-30T02:32:52.617Z,66.67
2019-04-30T02:33:50.495Z,66.46
2019-04-30T02:34:50.468Z,66.15
2019-04-30T02:35:50.448Z,66.05
2019-04-30T02:36:50.460Z,66.25
2019-04-30T02:38:00.189Z,65.95
2019-04-30T02:38:50.423Z,66.25
2019-04-30T02:39:50.409Z,66.25
2019-04-30T02:40:50.387Z,66.18
2019-04-30T02:41:50.703Z,66.05
2019-04-30T02:42:50.370Z,66.15
2019-04-30T02:43:50.371Z,66.08
2019-04-30T02:44:50.543Z,66.28
2019-04-30T02:45:50.405Z,66.08
2019-04-30T02:46:50.545Z,65.98
2019-04-30T02:47:50.314Z,66.49
2019-04-30T02:48:50.493Z,66.18
2019-04-30T02:49:53.304Z,65.95
2019-04-30T02:50:50.293Z,66.46
2019-04-30T02:51:50.323Z,66.97
2019-04-30T02:52:50.539Z,66.80
2019-04-30T02:53:50.746Z,66.28
2019-04-30T02:54:50.251Z,66.70
2019-04-30T02:55:50.235Z,66.28
2019-04-30T02:56:50.789Z,66.39
2019-04-30T02:57:50.230Z,66.28
2019-04-30T02:58:50.834Z,66.28
2019-04-30T02:59:50.176Z,66.18
2019-04-30T03:00:50.189Z,66.18
2019-04-30T03:01:50.398Z,66.18
2019-04-30T03:02:50.717Z,66.08
2019-04-30T03:03:50.387Z,66.25
2019-04-30T03:04:50.282Z,65.98
2019-04-30T03:05:50.127Z,66.25
2019-04-30T03:06:50.530Z,67.00
2019-04-30T03:07:53.334Z,66.80
2019-04-30T03:08:51.163Z,67.21
2019-04-30T03:09:50.127Z,66.39
2019-04-30T03:10:52.875Z,66.70
2019-04-30T03:11:50.380Z,66.28
2019-04-30T03:12:50.189Z,66.80
2019-04-30T03:13:50.057Z,66.39
2019-04-30T03:14:50.328Z,65.88
2019-04-30T03:15:50.006Z,66.08
2019-04-30T03:16:53.034Z,66.18
2019-04-30T03:17:50.781Z,65.77
2019-04-30T03:18:50.036Z,66.18
2019-04-30T03:19:50.236Z,65.88
2019-04-30T03:20:50.006Z,66.39
2019-04-30T03:21:50.373Z,66.39
2019-04-30T03:22:51.254Z,65.77
2019-04-30T03:23:50.319Z,66.39
2019-04-30T03:24:50.295Z,66.70
2019-04-30T03:25:50.251Z,66.49
2019-04-30T03:26:50.163Z,66.49
2019-04-30T03:27:49.972Z,66.52
2019-04-30T03:28:49.881Z,66.42
2019-04-30T03:29:50.454Z,65.91
2019-04-30T03:30:56.343Z,66.01
2019-04-30T03:31:52.475Z,66.31
2019-04-30T03:32:56.025Z,66.73
2019-04-30T03:33:52.278Z,66.94
2019-04-30T03:34:51.607Z,66.94
2019-04-30T03:35:54.258Z,66.31
2019-04-30T03:36:50.775Z,66.83
2019-04-30T03:37:49.833Z,66.73
2019-04-30T03:38:50.190Z,66.73
2019-04-30T03:39:49.730Z,66.52
2019-04-30T03:40:50.218Z,66.63
2019-04-30T03:41:50.398Z,66.42
2019-04-30T03:42:49.742Z,66.73
2019-04-30T03:43:50.433Z,66.45
2019-04-30T03:44:49.922Z,66.35
2019-04-30T03:45:50.040Z,66.45
2019-04-30T03:46:49.989Z,66.35
2019-04-30T03:47:50.430Z,67.17
2019-04-30T03:48:50.387Z,66.35
2019-04-30T03:49:50.107Z,66.24
2019-04-30T03:50:56.416Z,66.35
2019-04-30T03:51:50.640Z,66.45
2019-04-30T03:52:50.307Z,66.14
2019-04-30T03:53:50.152Z,69.85
2019-04-30T03:54:49.678Z,73.98
2019-04-30T03:55:50.548Z,73.02
2019-04-30T03:56:50.345Z,69.93
2019-04-30T03:57:51.869Z,69.72
2019-04-30T03:58:50.320Z,70.34
2019-04-30T03:59:50.040Z,68.38
2019-04-30T04:00:50.189Z,67.42
2019-04-30T04:01:49.927Z,68.14
2019-04-30T04:02:50.166Z,67.60
2019-04-30T04:03:49.911Z,66.18
2019-04-30T04:04:52.625Z,66.05
2019-04-30T04:05:49.826Z,65.33
2019-04-30T04:06:49.439Z,65.12
2019-04-30T04:07:52.735Z,64.40
2019-04-30T04:08:49.431Z,64.22
2019-04-30T04:09:49.978Z,64.22
2019-04-30T04:10:50.291Z,64.53
2019-04-30T04:11:50.788Z,64.95
2019-04-30T04:12:49.940Z,64.98
2019-04-30T04:13:49.600Z,65.05
2019-04-30T04:14:51.029Z,65.49
2019-04-30T04:15:50.053Z,65.28
2019-04-30T04:16:50.845Z,65.08
2019-04-30T04:17:50.386Z,65.08
2019-04-30T04:18:50.165Z,65.08
2019-04-30T04:19:49.488Z,65.18
2019-04-30T04:20:51.955Z,65.49
2019-04-30T04:21:50.976Z,65.18
2019-04-30T04:22:49.823Z,65.39
2019-04-30T04:23:49.506Z,65.18
2019-04-30T04:24:50.368Z,64.98
2019-04-30T04:25:49.924Z,65.08
2019-04-30T04:26:50.161Z,66.11
2019-04-30T04:27:50.934Z,66.11
2019-04-30T04:28:49.804Z,65.59
2019-04-30T04:29:51.144Z,65.49
2019-04-30T04:30:50.527Z,65.28
2019-04-30T04:31:50.130Z,65.80
2019-04-30T04:32:50.088Z,65.70
2019-04-30T04:33:52.461Z,65.59
2019-04-30T04:34:50.525Z,65.49
2019-04-30T04:35:49.900Z,65.08
2019-04-30T04:36:50.524Z,65.28
2019-04-30T04:37:49.740Z,65.18
2019-04-30T04:38:50.777Z,65.59
2019-04-30T04:39:50.001Z,65.49
2019-04-30T04:40:50.161Z,65.49
2019-04-30T04:41:50.253Z,65.59
2019-04-30T04:42:49.469Z,65.80
2019-04-30T04:43:50.473Z,65.70
2019-04-30T04:44:50.290Z,65.80
2019-04-30T04:45:49.845Z,66.01
2019-04-30T04:46:50.366Z,65.80
2019-04-30T04:47:50.326Z,65.80
2019-04-30T04:48:49.530Z,66.21
2019-04-30T04:49:53.174Z,65.91
2019-04-30T04:50:50.047Z,66.01
2019-04-30T04:51:49.337Z,66.01
2019-04-30T04:52:49.634Z,66.01
2019-04-30T04:53:50.055Z,66.11
2019-04-30T04:54:50.662Z,66.11
2019-04-30T04:55:49.957Z,66.21
2019-04-30T04:56:52.971Z,66.11
2019-04-30T04:57:50.014Z,66.01
2019-04-30T04:58:50.145Z,65.91
2019-04-30T04:59:49.929Z,65.80
2019-04-30T05:00:49.478Z,66.42
2019-04-30T05:01:49.123Z,67.03
2019-04-30T05:02:49.762Z,66.42
2019-04-30T05:03:49.063Z,66.42
2019-04-30T05:04:49.204Z,66.52
2019-04-30T05:05:49.902Z,66.83
2019-04-30T05:06:49.874Z,66.42
2019-04-30T05:07:48.777Z,66.31
2019-04-30T05:08:49.309Z,66.52
2019-04-30T05:09:49.020Z,67.03
2019-04-30T05:10:49.531Z,66.49
2019-04-30T05:11:48.882Z,66.49
2019-04-30T05:12:49.241Z,66.60
2019-04-30T05:13:49.118Z,65.98
2019-04-30T05:14:48.735Z,66.49
2019-04-30T05:15:49.243Z,65.98
2019-04-30T05:16:48.902Z,66.18
2019-04-30T05:17:49.468Z,66.25
2019-04-30T05:18:48.855Z,66.05
2019-04-30T05:19:48.769Z,65.95
2019-04-30T05:20:49.068Z,65.95
2019-04-30T05:21:51.494Z,66.05
2019-04-30T05:22:48.948Z,66.05
2019-04-30T05:23:49.299Z,65.95
2019-04-30T05:24:48.926Z,66.05
2019-04-30T05:25:49.075Z,65.92
2019-04-30T05:26:48.845Z,66.15
2019-04-30T05:27:48.925Z,65.81
2019-04-30T05:28:52.514Z,65.71
2019-04-30T05:29:49.867Z,65.92
2019-04-30T05:30:49.394Z,67.57
2019-04-30T05:31:48.693Z,66.02
2019-04-30T05:32:50.362Z,66.12
2019-04-30T05:33:48.926Z,66.40
2019-04-30T05:34:49.683Z,66.30
2019-04-30T05:35:49.602Z,65.78
2019-04-30T05:36:48.961Z,66.71
2019-04-30T05:37:49.496Z,66.40
2019-04-30T05:38:48.767Z,65.78
2019-04-30T05:39:48.935Z,65.86
2019-04-30T05:40:49.554Z,66.09
2019-04-30T05:41:49.136Z,65.89
2019-04-30T05:42:49.658Z,65.34
2019-04-30T05:43:48.796Z,65.44
2019-04-30T05:44:49.748Z,64.93
2019-04-30T05:45:49.167Z,65.41
2019-04-30T05:46:49.434Z,64.31
2019-04-30T05:47:50.189Z,64.11
2019-04-30T05:48:49.490Z,64.07
2019-04-30T05:49:48.978Z,63.76
2019-04-30T05:50:51.439Z,63.97
2019-04-30T05:51:55.350Z,64.18
2019-04-30T05:52:49.472Z,63.87
2019-04-30T05:53:49.191Z,63.74
2019-04-30T05:54:48.863Z,63.53
2019-04-30T05:55:49.401Z,63.64
2019-04-30T05:56:49.363Z,63.53
2019-04-30T05:57:55.824Z,63.32
2019-04-30T05:58:49.491Z,63.29
2019-04-30T05:59:48.695Z,63.20
2019-04-30T06:00:49.926Z,62.99
2019-04-30T06:01:50.715Z,62.88
2019-04-30T06:02:49.729Z,62.37
2019-04-30T06:03:48.405Z,62.34
2019-04-30T06:04:49.010Z,62.34
2019-04-30T06:05:49.266Z,62.75
2019-04-30T06:06:49.037Z,62.85
2019-04-30T06:07:51.654Z,62.52
2019-04-30T06:08:49.043Z,63.03
2019-04-30T06:09:48.527Z,62.73
2019-04-30T06:10:49.289Z,61.77
2019-04-30T06:11:49.152Z,61.87
2019-04-30T06:12:49.307Z,61.57
2019-04-30T06:13:49.085Z,61.64
2019-04-30T06:14:51.218Z,60.61
2019-04-30T06:15:49.047Z,59.59
2019-04-30T06:16:49.230Z,58.56
2019-04-30T06:17:57.948Z,58.64
2019-04-30T06:18:48.969Z,57.82
2019-04-30T06:19:48.763Z,58.64
2019-04-30T06:20:48.545Z,58.10
2019-04-30T06:21:49.128Z,58.81
2019-04-30T06:22:49.696Z,57.89
2019-04-30T06:23:49.268Z,57.28
2019-04-30T06:24:49.544Z,56.33
2019-04-30T06:25:57.570Z,56.23
2019-04-30T06:26:49.413Z,56.64
2019-04-30T06:27:48.869Z,56.43
2019-04-30T06:28:49.622Z,56.64
2019-04-30T06:29:49.022Z,56.84
2019-04-30T06:30:49.265Z,56.20
2019-04-30T06:31:48.610Z,55.82
2019-04-30T06:32:49.604Z,55.92
2019-04-30T06:33:48.759Z,55.18
2019-04-30T06:34:49.822Z,54.25
2019-04-30T06:35:49.145Z,54.36
2019-04-30T06:36:51.839Z,53.75
2019-04-30T06:37:48.997Z,54.46
2019-04-30T06:38:48.896Z,53.85
2019-04-30T06:39:49.814Z,54.16
2019-04-30T06:40:48.887Z,54.23
2019-04-30T06:41:49.401Z,54.23
2019-04-30T06:42:49.529Z,53.82
2019-04-30T06:43:48.806Z,53.62
2019-04-30T06:44:49.408Z,53.90
2019-04-30T06:45:50.911Z,53.90
2019-04-30T06:46:48.773Z,52.78
2019-04-30T06:47:48.899Z,52.57
2019-04-30T06:48:50.827Z,52.24
2019-04-30T06:49:48.908Z,51.42
2019-04-30T06:50:49.235Z,51.62
2019-04-30T06:51:49.190Z,51.53
2019-04-30T06:52:56.266Z,50.68
2019-04-30T06:53:51.405Z,50.99
2019-04-30T06:54:49.636Z,50.89
2019-04-30T06:55:49.279Z,50.27
2019-04-30T06:56:48.502Z,50.78
2019-04-30T06:57:49.519Z,50.27
2019-04-30T06:58:49.649Z,50.78
2019-04-30T06:59:51.344Z,50.58
2019-04-30T07:00:49.492Z,50.56
2019-04-30T07:01:48.941Z,49.22
2019-04-30T07:02:49.266Z,50.04
2019-04-30T07:03:48.781Z,49.43
2019-04-30T07:04:49.137Z,49.82
2019-04-30T07:05:48.840Z,49.13
2019-04-30T07:06:50.501Z,48.49
2019-04-30T07:07:48.839Z,47.98
2019-04-30T07:08:55.601Z,47.98
2019-04-30T07:09:52.618Z,49.30
2019-04-30T07:10:55.670Z,49.51
2019-04-30T07:11:49.331Z,49.82
2019-04-30T07:12:49.074Z,49.41
2019-04-30T07:13:49.525Z,49.41
2019-04-30T07:14:49.347Z,49.29
2019-04-30T07:15:48.995Z,47.96
2019-04-30T07:16:49.390Z,48.16
2019-04-30T07:17:49.196Z,47.65
2019-04-30T07:18:48.910Z,47.94
2019-04-30T07:19:54.268Z,48.03
2019-04-30T07:20:48.658Z,47.02
2019-04-30T07:21:49.469Z,47.32
2019-04-30T07:22:52.547Z,47.09
2019-04-30T07:23:48.601Z,47.09
2019-04-30T07:24:49.500Z,47.22
2019-04-30T07:25:49.363Z,46.79
2019-04-30T07:26:48.981Z,46.30
2019-04-30T07:27:47.248Z,47.61
2019-04-30T07:29:49.493Z,46.79
2019-04-30T07:30:49.347Z,47.09
2019-04-30T07:31:49.033Z,47.08
2019-04-30T07:32:48.830Z,46.77
2019-04-30T07:33:51.517Z,45.73
2019-04-30T07:34:49.525Z,45.42
2019-04-30T07:35:49.691Z,45.53
2019-04-30T07:36:55.135Z,45.53
2019-04-30T07:37:49.806Z,45.61
2019-04-30T07:38:54.499Z,45.61
2019-04-30T07:39:49.393Z,45.28
2019-04-30T07:40:49.179Z,44.67
2019-04-30T07:41:49.017Z,44.77
2019-04-30T07:42:49.040Z,43.75
2019-04-30T07:43:49.474Z,44.16
2019-04-30T07:44:46.995Z,44.04
2019-04-30T07:45:49.454Z,43.43
2019-04-30T07:46:49.226Z,43.51
2019-04-30T07:47:47.025Z,43.10
2019-04-30T07:48:46.955Z,43.20
2019-04-30T07:49:52.984Z,43.20
2019-04-30T07:50:51.492Z,43.61
2019-04-30T07:51:47.700Z,43.30
2019-04-30T07:52:58.884Z,42.69
2019-04-30T07:53:49.592Z,43.00
2019-04-30T07:54:46.883Z,43.30
2019-04-30T07:55:49.246Z,43.41
2019-04-30T07:56:46.871Z,43.71
2019-04-30T07:57:50.113Z,43.41
2019-04-30T07:58:46.840Z,43.41
2019-04-30T07:59:46.890Z,43.18
2019-04-30T08:00:46.829Z,42.47
2019-04-30T08:02:03.148Z,42.27
2019-04-30T08:02:50.459Z,42.68
2019-04-30T08:03:49.483Z,42.05
2019-04-30T08:04:46.805Z,40.83
2019-04-30T08:05:46.876Z,41.82
2019-04-30T08:06:46.760Z,40.91
2019-04-30T08:07:48.822Z,41.44
2019-04-30T08:08:46.803Z,42.05
2019-04-30T08:09:38.386Z,47.40
2019-04-30T08:09:48.897Z,40.81
2019-04-30T08:10:46.732Z,41.01
2019-04-30T08:11:46.744Z,39.89
2019-04-30T08:12:49.173Z,39.69
2019-04-30T08:13:49.153Z,39.57
2019-04-30T08:14:46.700Z,39.57
2019-04-30T08:15:46.657Z,39.98
2019-04-30T08:16:48.494Z,39.06
2019-04-30T08:18:01.663Z,39.47
2019-04-30T08:18:49.247Z,38.05
2019-04-30T08:19:48.837Z,38.64
2019-04-30T08:20:46.645Z,37.95
2019-04-30T08:21:48.498Z,38.84
2019-04-30T08:22:46.580Z,39.65
2019-04-30T08:23:48.804Z,39.25
2019-04-30T08:24:46.570Z,39.55
2019-04-30T08:25:46.529Z,38.64
2019-04-30T08:26:46.550Z,38.43
2019-04-30T08:27:46.518Z,37.22
2019-04-30T08:28:48.612Z,37.40
2019-04-30T08:29:46.492Z,37.20
2019-04-30T08:30:46.479Z,37.30
2019-04-30T08:31:46.532Z,37.40
2019-04-30T08:32:46.458Z,37.30
2019-04-30T08:33:46.464Z,37.10
2019-04-30T08:34:46.462Z,36.27
2019-04-30T08:35:46.444Z,35.77
2019-04-30T08:36:46.411Z,35.57
2019-04-30T08:37:46.414Z,35.16
2019-04-30T08:38:46.426Z,34.75
2019-04-30T08:39:46.392Z,34.45
2019-04-30T08:40:55.513Z,33.84
2019-04-30T08:41:49.230Z,34.74
2019-04-30T08:42:46.346Z,33.12
2019-04-30T08:43:46.398Z,33.52
2019-04-30T08:44:48.430Z,33.40
2019-04-30T08:45:46.315Z,33.40
2019-04-30T08:46:46.324Z,33.50
2019-04-30T08:47:46.289Z,33.00
2019-04-30T08:48:51.638Z,33.09
2019-04-30T08:49:49.560Z,33.49
2019-04-30T08:50:46.344Z,32.98
2019-04-30T08:51:46.330Z,32.56
2019-04-30T08:52:46.368Z,32.87
2019-04-30T08:53:46.229Z,31.45
2019-04-30T08:54:46.236Z,31.55
2019-04-30T08:55:46.211Z,30.93
2019-04-30T08:56:46.232Z,31.13
2019-04-30T08:57:46.182Z,31.23
2019-04-30T08:58:46.169Z,31.13
2019-04-30T08:59:46.213Z,31.13
2019-04-30T09:00:46.155Z,30.63
2019-04-30T09:01:46.130Z,31.73
2019-04-30T09:02:46.141Z,30.41
2019-04-30T09:03:46.119Z,30.02
2019-04-30T09:04:46.130Z,29.72
2019-04-30T09:05:46.138Z,30.44
2019-04-30T09:06:46.077Z,30.44
2019-04-30T09:07:46.070Z,31.05
2019-04-30T09:08:46.095Z,30.64
2019-04-30T09:09:46.080Z,30.04
2019-04-30T09:10:46.077Z,30.25
2019-04-30T09:11:53.008Z,30.74
2019-04-30T09:12:47.019Z,29.93
2019-04-30T09:13:46.068Z,28.52
2019-04-30T09:14:46.013Z,29.83
2019-04-30T09:15:46.017Z,29.33
2019-04-30T09:16:45.997Z,30.13
2019-04-30T09:17:58.932Z,30.04
2019-04-30T09:18:46.948Z,29.63
2019-04-30T09:19:45.944Z,29.93
2019-04-30T09:20:45.957Z,29.43
2019-04-30T09:21:45.944Z,29.83
2019-04-30T09:22:45.900Z,30.04
2019-04-30T09:23:51.893Z,28.92
2019-04-30T09:24:46.914Z,29.02
2019-04-30T09:25:45.901Z,29.33
2019-04-30T09:26:45.862Z,30.04
2019-04-30T09:27:45.861Z,28.61
2019-04-30T09:28:45.843Z,28.91
2019-04-30T09:29:45.829Z,28.20
2019-04-30T09:30:45.842Z,28.49
2019-04-30T09:31:45.836Z,27.98
2019-04-30T09:32:45.815Z,29.10
2019-04-30T09:33:45.777Z,28.78
2019-04-30T09:34:45.950Z,28.08
2019-04-30T09:35:45.808Z,28.48
2019-04-30T09:36:45.777Z,28.56
2019-04-30T09:37:45.741Z,27.66
2019-04-30T09:38:45.739Z,27.86
2019-04-30T09:39:45.708Z,27.15
2019-04-30T09:40:45.706Z,27.76
2019-04-30T09:41:45.723Z,27.45
2019-04-30T09:42:45.684Z,27.76
2019-04-30T09:43:45.676Z,27.24
2019-04-30T09:44:45.657Z,26.93
2019-04-30T09:45:45.708Z,27.25
2019-04-30T09:46:45.658Z,28.06
2019-04-30T09:47:45.626Z,27.34
2019-04-30T09:48:45.647Z,26.53
2019-04-30T09:49:45.599Z,26.13
2019-04-30T09:50:45.857Z,26.13
2019-04-30T09:51:45.601Z,26.33
2019-04-30T09:52:45.577Z,26.32
2019-04-30T09:53:55.614Z,26.92
2019-04-30T09:54:46.563Z,26.81
2019-04-30T09:55:45.530Z,26.81
2019-04-30T09:56:45.547Z,26.51
2019-04-30T09:57:45.536Z,26.91
2019-04-30T09:58:45.512Z,26.81
2019-04-30T09:59:45.493Z,26.50
2019-04-30T10:00:45.542Z,26.70
2019-04-30T10:01:45.477Z,26.20
2019-04-30T10:02:45.484Z,26.29
2019-04-30T10:03:45.895Z,26.70
2019-04-30T10:04:45.852Z,26.18
2019-04-30T10:05:45.454Z,26.59
2019-04-30T10:06:45.409Z,26.48
2019-04-30T10:07:45.415Z,26.89
2019-04-30T10:08:48.750Z,25.87
2019-04-30T10:09:46.382Z,25.35
2019-04-30T10:10:45.435Z,25.16
2019-04-30T10:11:45.349Z,25.16
2019-04-30T10:12:45.432Z,25.65
2019-04-30T10:13:45.337Z,25.35
2019-04-30T10:14:45.322Z,24.15
2019-04-30T10:15:45.334Z,24.43
2019-04-30T10:16:45.304Z,23.73
2019-04-30T10:17:45.314Z,24.13
2019-04-30T10:18:45.283Z,24.23
2019-04-30T10:19:45.274Z,24.23
2019-04-30T10:20:45.293Z,24.33
2019-04-30T10:21:45.252Z,24.54
2019-04-30T10:22:45.277Z,24.32
2019-04-30T10:23:45.220Z,24.73
2019-04-30T10:24:45.228Z,24.91
2019-04-30T10:25:45.206Z,24.91
2019-04-30T10:26:45.198Z,23.90
2019-04-30T10:27:45.213Z,23.49
2019-04-30T10:28:45.193Z,24.19
2019-04-30T10:29:45.155Z,23.18
2019-04-30T10:30:45.148Z,21.97
2019-04-30T10:31:45.142Z,22.57
2019-04-30T10:32:45.161Z,22.17
2019-04-30T10:33:45.147Z,22.37
2019-04-30T10:34:45.116Z,22.68
2019-04-30T10:35:45.085Z,22.79
2019-04-30T10:36:45.086Z,22.99
2019-04-30T10:37:45.066Z,23.18
2019-04-30T10:38:45.134Z,23.49
2019-04-30T10:39:45.060Z,22.68
2019-04-30T10:40:45.029Z,22.69
2019-04-30T10:41:45.067Z,22.39
2019-04-30T10:42:45.020Z,22.80
2019-04-30T10:43:45.026Z,23.39
2019-04-30T10:44:44.999Z,22.39
2019-04-30T10:45:44.983Z,22.09
2019-04-30T10:46:44.971Z,22.69
2019-04-30T10:47:44.988Z,22.29
2019-04-30T10:48:44.984Z,22.68
2019-04-30T10:49:44.930Z,22.08
2019-04-30T10:50:44.922Z,22.48
2019-04-30T10:51:44.906Z,22.39
2019-04-30T10:52:44.904Z,23.10
2019-04-30T10:53:44.954Z,22.49
2019-04-30T10:54:44.897Z,22.29
2019-04-30T10:55:44.874Z,22.59
2019-04-30T10:56:44.859Z,23.30
2019-04-30T10:57:44.878Z,22.29
2019-04-30T10:58:44.875Z,23.50
2019-04-30T10:59:44.983Z,23.28
2019-04-30T11:00:44.820Z,23.18
2019-04-30T11:01:44.807Z,23.38
2019-04-30T11:02:44.788Z,23.27
2019-04-30T11:03:44.784Z,22.17
2019-04-30T11:04:44.786Z,22.77
2019-04-30T11:05:44.771Z,23.47
2019-04-30T11:06:44.741Z,23.37
2019-04-30T11:07:44.735Z,23.38
2019-04-30T11:08:44.763Z,23.27
2019-04-30T11:09:44.725Z,23.47
2019-04-30T11:10:44.696Z,23.27
2019-04-30T11:11:44.686Z,22.37
2019-04-30T11:12:44.684Z,22.67
2019-04-30T11:13:44.675Z,22.77
2019-04-30T11:14:44.730Z,22.57
2019-04-30T11:15:44.632Z,22.76
2019-04-30T11:16:44.788Z,22.37
2019-04-30T11:17:44.750Z,22.68
2019-04-30T11:18:44.768Z,22.68
2019-04-30T11:19:44.777Z,22.39
2019-04-30T11:20:44.796Z,23.39
2019-04-30T11:21:44.704Z,23.50
2019-04-30T11:22:44.773Z,23.39
2019-04-30T11:23:44.709Z,23.60
2019-04-30T11:24:56.483Z,22.28
2019-04-30T11:25:46.232Z,22.38
2019-04-30T11:26:45.439Z,22.28
2019-04-30T11:27:45.066Z,22.78
2019-04-30T11:28:44.657Z,21.47
2019-04-30T11:29:44.690Z,22.38
2019-04-30T11:30:44.687Z,22.27
2019-04-30T11:31:44.663Z,22.07
2019-04-30T11:32:44.680Z,21.97
2019-04-30T11:33:44.746Z,22.27
2019-04-30T11:34:44.442Z,22.97
2019-04-30T11:35:44.433Z,23.27
2019-04-30T11:36:44.403Z,23.18
2019-04-30T11:37:44.393Z,22.77
2019-04-30T11:38:44.386Z,22.16
2019-04-30T11:39:44.423Z,23.06
2019-04-30T11:40:44.417Z,22.36
2019-04-30T11:41:44.352Z,22.55
2019-04-30T11:42:44.332Z,22.35
2019-04-30T11:43:44.394Z,21.64
2019-04-30T11:44:44.383Z,21.54
2019-04-30T11:45:44.313Z,21.14
2019-04-30T11:46:44.289Z,21.45
2019-04-30T11:47:53.201Z,21.84
2019-04-30T11:48:45.265Z,22.15
2019-04-30T11:49:44.293Z,21.95
2019-04-30T11:50:44.283Z,21.45
2019-04-30T11:51:44.250Z,22.25
2019-04-30T11:52:44.225Z,22.86
2019-04-30T11:53:44.211Z,22.75
2019-04-30T11:54:51.413Z,22.45
2019-04-30T11:55:45.219Z,22.25
2019-04-30T11:56:44.211Z,22.35
2019-04-30T11:57:44.175Z,22.45
2019-04-30T11:58:44.194Z,22.45
2019-04-30T11:59:44.147Z,21.84
2019-04-30T12:00:44.160Z,21.84
2019-04-30T12:01:44.122Z,22.15
2019-04-30T12:02:44.111Z,21.96
2019-04-30T12:03:44.121Z,21.86
2019-04-30T12:04:44.106Z,21.56
2019-04-30T12:05:44.097Z,21.86
2019-04-30T12:06:44.059Z,22.66
2019-04-30T12:07:44.038Z,22.66
2019-04-30T12:08:44.047Z,22.25
2019-04-30T12:09:44.042Z,21.84
2019-04-30T12:10:44.061Z,21.95
2019-04-30T12:11:44.002Z,21.86
2019-04-30T12:12:44.059Z,21.66
2019-04-30T12:13:43.972Z,22.77
2019-04-30T12:14:43.976Z,23.18
2019-04-30T12:15:43.984Z,23.37
2019-04-30T12:16:43.947Z,23.27
2019-04-30T12:17:43.949Z,23.27
2019-04-30T12:18:43.936Z,22.56
2019-04-30T12:19:43.925Z,22.57
2019-04-30T12:20:44.014Z,22.66
2019-04-30T12:21:43.885Z,22.76
2019-04-30T12:22:43.879Z,22.26
2019-04-30T12:23:43.966Z,22.56
2019-04-30T12:24:43.877Z,22.86
2019-04-30T12:25:43.882Z,23.36
2019-04-30T12:26:43.833Z,23.35
2019-04-30T12:27:43.829Z,23.35
2019-04-30T12:28:43.870Z,23.25
2019-04-30T12:29:43.812Z,22.65
2019-04-30T12:30:43.814Z,23.35
2019-04-30T12:31:43.791Z,23.45
2019-04-30T12:32:43.795Z,23.34
2019-04-30T12:33:43.772Z,23.34
2019-04-30T12:34:43.743Z,23.04
2019-04-30T12:35:43.771Z,23.54
2019-04-30T12:36:43.733Z,23.24
2019-04-30T12:37:43.714Z,23.14
2019-04-30T12:38:43.729Z,23.34
2019-04-30T12:39:43.694Z,23.15
2019-04-30T12:40:43.798Z,23.85
2019-04-30T12:41:43.674Z,22.75
2019-04-30T12:42:43.675Z,23.35
2019-04-30T12:43:43.655Z,23.05
2019-04-30T12:44:43.636Z,23.46
2019-04-30T12:45:43.696Z,22.96
2019-04-30T12:46:43.608Z,23.36
2019-04-30T12:47:43.604Z,23.75
2019-04-30T12:48:43.581Z,23.75
2019-04-30T12:49:43.576Z,23.65
2019-04-30T12:50:43.613Z,22.75
2019-04-30T12:51:45.887Z,23.75
2019-04-30T12:52:43.535Z,23.65